createdAt,value
2022-11-14T00:01:58.973Z,40.30
2022-11-14T00:04:29.666Z,40.80
2022-11-14T00:06:58.840Z,40.30
2022-11-14T00:09:30.424Z,40.20
2022-11-14T00:11:58.103Z,40.30
2022-11-14T00:14:27.711Z,40.30
2022-11-14T00:16:55.582Z,40.30
2022-11-14T00:19:24.169Z,40.20
2022-11-14T00:21:54.745Z,40.20
2022-11-14T00:24:25.306Z,40.30
2022-11-14T00:26:53.906Z,40.20
2022-11-14T00:29:22.794Z,40.30
2022-11-14T00:31:54.083Z,40.20
2022-11-14T00:34:24.461Z,40.20
2022-11-14T00:36:54.541Z,40.30
2022-11-14T00:39:21.164Z,40.30
2022-11-14T00:41:50.884Z,40.20
2022-11-14T00:44:19.492Z,40.20
2022-11-14T00:46:48.752Z,40.30
2022-11-14T00:49:18.320Z,40.20
2022-11-14T00:51:47.858Z,40.20
2022-11-14T00:54:14.925Z,40.30
2022-11-14T00:56:44.184Z,40.20
2022-11-14T00:59:12.083Z,40.20
2022-11-14T01:01:42.014Z,40.20
2022-11-14T01:04:12.000Z,40.30
2022-11-14T01:06:39.908Z,40.20
2022-11-14T01:09:09.313Z,40.20
2022-11-14T01:11:39.827Z,40.20
2022-11-14T01:14:11.462Z,40.20
2022-11-14T01:16:39.353Z,40.10
2022-11-14T01:19:07.948Z,40.20
2022-11-14T01:21:37.287Z,40.20
2022-11-14T01:24:11.489Z,40.20
2022-11-14T01:26:41.343Z,40.20
2022-11-14T01:29:09.943Z,40.20
2022-11-14T01:31:37.917Z,40.10
2022-11-14T01:34:07.062Z,40.10
2022-11-14T01:36:33.985Z,40.10
2022-11-14T01:39:03.030Z,40.10
2022-11-14T01:41:32.029Z,40.10
2022-11-14T01:44:00.014Z,40.10
2022-11-14T01:46:38.241Z,40.10
2022-11-14T01:49:26.129Z,40.10
2022-11-14T01:52:06.033Z,40.10
2022-11-14T01:54:37.271Z,40.10
2022-11-14T01:57:08.584Z,40.20
2022-11-14T01:59:40.956Z,40.10
2022-11-14T02:02:15.401Z,40.20
2022-11-14T02:04:56.877Z,40.10
2022-11-14T02:07:29.801Z,40.10
2022-11-14T02:10:01.479Z,40.10
2022-11-14T02:12:30.986Z,40.10
2022-11-14T02:15:01.102Z,40.10
2022-11-14T02:17:31.194Z,40.10
2022-11-14T02:20:14.965Z,40.10
2022-11-14T02:22:47.008Z,40.10
2022-11-14T02:25:22.100Z,40.10
2022-11-14T02:27:52.046Z,40.10
2022-11-14T02:30:26.687Z,40.10
2022-11-14T02:33:10.638Z,40.10
2022-11-14T02:35:42.838Z,40.00
2022-11-14T02:38:11.118Z,40.10
2022-11-14T02:40:42.622Z,40.10
2022-11-14T02:43:13.551Z,40.10
2022-11-14T02:45:43.549Z,40.10
2022-11-14T02:48:12.506Z,40.10
2022-11-14T02:50:41.521Z,40.10
2022-11-14T02:53:12.166Z,40.00
2022-11-14T02:55:44.056Z,40.10
2022-11-14T02:58:11.784Z,40.00
2022-11-14T03:01:13.415Z,40.00
2022-11-14T03:03:34.435Z,40.00
2022-11-14T03:06:05.746Z,40.10
2022-11-14T03:08:35.128Z,40.10
2022-11-14T03:11:08.345Z,40.10
2022-11-14T03:13:38.653Z,40.10
2022-11-14T03:16:13.113Z,40.10
2022-11-14T03:18:42.614Z,40.10
2022-11-14T03:21:15.469Z,40.00
2022-11-14T03:23:43.533Z,40.10
2022-11-14T03:26:14.689Z,40.00
2022-11-14T03:28:44.137Z,40.00
2022-11-14T03:31:13.893Z,40.70
2022-11-14T03:33:44.858Z,40.00
2022-11-14T03:36:13.546Z,40.00
2022-11-14T03:38:40.808Z,40.00
2022-11-14T03:41:13.656Z,40.70
2022-11-14T03:43:43.199Z,40.00
2022-11-14T03:46:14.504Z,40.10
2022-11-14T03:48:43.088Z,40.00
2022-11-14T03:51:11.027Z,40.00
2022-11-14T03:53:39.100Z,40.00
2022-11-14T03:56:06.371Z,40.00
2022-11-14T03:58:35.813Z,40.00
2022-11-14T04:01:05.670Z,40.00
2022-11-14T04:03:33.604Z,40.00
2022-11-14T04:06:01.642Z,40.00
2022-11-14T04:08:29.565Z,40.00
2022-11-14T04:11:00.714Z,40.10
2022-11-14T04:13:31.806Z,40.00
2022-11-14T04:16:02.961Z,40.00
2022-11-14T04:18:33.657Z,40.00
2022-11-14T04:21:05.819Z,40.00
2022-11-14T04:23:37.728Z,40.10
2022-11-14T04:26:07.240Z,40.20
2022-11-14T04:28:33.597Z,40.00
2022-11-14T04:31:01.857Z,40.00
2022-11-14T04:33:30.901Z,40.10
2022-11-14T04:36:00.288Z,40.00
2022-11-14T04:38:32.287Z,40.00
2022-11-14T04:41:02.328Z,40.10
2022-11-14T04:43:29.992Z,40.00
2022-11-14T04:45:59.411Z,40.00
2022-11-14T04:48:30.400Z,40.00
2022-11-14T04:50:59.849Z,40.00
2022-11-14T04:53:28.075Z,40.00
2022-11-14T04:55:59.024Z,40.00
2022-11-14T04:58:27.567Z,40.00
2022-11-14T05:00:57.857Z,39.90
2022-11-14T05:03:28.641Z,39.90
2022-11-14T05:06:00.494Z,39.90
2022-11-14T05:08:30.011Z,39.90
2022-11-14T05:10:59.264Z,39.90
2022-11-14T05:13:27.957Z,40.00
2022-11-14T05:16:02.010Z,39.90
2022-11-14T05:18:33.750Z,39.90
2022-11-14T05:21:02.975Z,39.90
2022-11-14T05:23:32.338Z,39.90
2022-11-14T05:26:08.845Z,39.90
2022-11-14T05:28:37.609Z,39.90
2022-11-14T05:31:12.149Z,39.90
2022-11-14T05:33:40.303Z,39.80
2022-11-14T05:36:10.955Z,40.50
2022-11-14T05:38:44.264Z,39.90
2022-11-14T05:41:15.069Z,39.80
2022-11-14T05:43:43.545Z,39.80
2022-11-14T05:46:12.731Z,39.80
2022-11-14T05:48:41.684Z,39.80
2022-11-14T05:51:13.100Z,39.80
2022-11-14T05:53:40.823Z,39.80
2022-11-14T05:56:11.745Z,40.50
2022-11-14T05:58:38.949Z,39.80
2022-11-14T06:01:08.059Z,39.80
2022-11-14T06:03:37.769Z,40.00
2022-11-14T06:06:07.219Z,40.20
2022-11-14T06:08:34.740Z,40.20
2022-11-14T06:11:11.489Z,39.90
2022-11-14T06:13:39.385Z,39.70
2022-11-14T06:16:10.731Z,39.80
2022-11-14T06:18:38.686Z,39.80
2022-11-14T06:21:08.673Z,39.80
2022-11-14T06:23:35.693Z,39.80
2022-11-14T06:26:04.719Z,40.00
2022-11-14T06:28:32.592Z,40.10
2022-11-14T06:31:01.685Z,40.20
2022-11-14T06:33:33.293Z,40.20
2022-11-14T06:36:02.642Z,40.20
2022-11-14T06:38:33.290Z,40.20
2022-11-14T06:41:13.241Z,40.20
2022-11-14T06:43:45.041Z,40.90
2022-11-14T06:46:18.129Z,40.10
2022-11-14T06:48:47.831Z,40.10
2022-11-14T06:51:17.367Z,39.90
2022-11-14T06:53:45.582Z,39.70
2022-11-14T06:56:17.445Z,39.60
2022-11-14T06:58:50.433Z,39.80
2022-11-14T07:01:27.024Z,40.00
2022-11-14T07:04:00.628Z,40.00
2022-11-14T07:06:31.739Z,40.10
2022-11-14T07:09:01.887Z,40.00
2022-11-14T07:11:32.769Z,39.70
2022-11-14T07:14:03.305Z,39.60
2022-11-14T07:16:36.476Z,39.50
2022-11-14T07:19:14.707Z,39.30
2022-11-14T07:21:42.414Z,39.40
2022-11-14T07:24:10.439Z,39.20
2022-11-14T07:26:38.153Z,39.10
2022-11-14T07:29:06.353Z,39.00
2022-11-14T07:31:34.125Z,39.10
2022-11-14T07:34:01.172Z,39.20
2022-11-14T07:36:28.531Z,39.00
2022-11-14T07:38:56.949Z,39.20
2022-11-14T07:41:24.041Z,39.10
2022-11-14T07:43:53.070Z,39.10
2022-11-14T07:46:20.422Z,39.20
2022-11-14T07:48:47.345Z,39.20
2022-11-14T07:51:20.795Z,39.30
2022-11-14T07:53:49.680Z,39.30
2022-11-14T07:56:17.922Z,39.40
2022-11-14T07:58:46.583Z,39.40
2022-11-14T08:01:14.087Z,39.50
2022-11-14T08:03:46.309Z,39.50
2022-11-14T08:06:15.801Z,39.40
2022-11-14T08:08:44.812Z,39.40
2022-11-14T08:11:12.174Z,39.50
2022-11-14T08:13:42.011Z,39.50
2022-11-14T08:16:14.197Z,39.90
2022-11-14T08:18:42.053Z,39.40
2022-11-14T08:21:09.432Z,39.40
2022-11-14T08:23:39.041Z,39.50
2022-11-14T08:26:05.967Z,39.60
2022-11-14T08:28:34.500Z,39.80
2022-11-14T08:31:08.948Z,39.70
2022-11-14T08:33:36.364Z,39.70
2022-11-14T08:36:04.605Z,39.60
2022-11-14T08:38:33.312Z,39.70
2022-11-14T08:41:02.742Z,39.60
2022-11-14T08:43:33.708Z,39.50
2022-11-14T08:46:03.208Z,40.20
2022-11-14T08:48:33.424Z,39.50
2022-11-14T08:51:06.254Z,39.50
2022-11-14T08:53:37.836Z,39.80
2022-11-14T08:56:06.608Z,39.70
2022-11-14T08:58:34.248Z,39.70
2022-11-14T09:01:09.525Z,39.90
2022-11-14T09:03:39.449Z,40.00
2022-11-14T09:06:06.651Z,40.10
2022-11-14T09:08:36.323Z,40.10
2022-11-14T09:11:10.241Z,39.80
2022-11-14T09:13:42.200Z,39.80
2022-11-14T09:16:11.562Z,39.90
2022-11-14T09:18:39.109Z,39.80
2022-11-14T09:21:09.170Z,39.90
2022-11-14T09:23:39.273Z,40.00
2022-11-14T09:26:07.933Z,39.90
2022-11-14T09:28:37.348Z,39.80
2022-11-14T09:31:14.579Z,39.90
2022-11-14T09:33:43.477Z,39.90
2022-11-14T09:36:16.330Z,39.90
2022-11-14T09:38:49.961Z,39.90
2022-11-14T09:41:48.998Z,39.80
2022-11-14T09:44:54.319Z,39.70
2022-11-14T09:47:32.466Z,39.70
2022-11-14T09:50:25.506Z,39.60
2022-11-14T09:52:59.207Z,39.60
2022-11-14T09:55:37.394Z,39.50
2022-11-14T09:58:14.374Z,40.00
2022-11-14T10:00:57.258Z,39.70
2022-11-14T10:03:50.968Z,39.60
2022-11-14T10:06:58.096Z,39.60
2022-11-14T10:09:50.372Z,39.60
2022-11-14T10:12:45.546Z,39.50
2022-11-14T10:15:33.590Z,39.50
2022-11-14T10:18:28.535Z,39.70
2022-11-14T10:21:10.695Z,39.80
2022-11-14T10:23:55.295Z,39.70
2022-11-14T10:26:35.368Z,39.70
2022-11-14T10:29:10.547Z,39.70
2022-11-14T10:32:18.166Z,39.70
2022-11-14T10:35:01.852Z,40.10
2022-11-14T10:37:49.512Z,40.30
2022-11-14T10:40:21.553Z,40.40
2022-11-14T10:43:30.193Z,40.40
2022-11-14T10:46:03.806Z,40.40
2022-11-14T10:48:41.065Z,40.40
2022-11-14T10:51:23.165Z,40.20
2022-11-14T10:54:11.354Z,40.20
2022-11-14T10:56:50.921Z,40.20
2022-11-14T10:59:19.966Z,40.10
2022-11-14T11:01:50.668Z,40.00
2022-11-14T11:04:32.109Z,40.00
2022-11-14T11:07:08.662Z,40.00
2022-11-14T11:09:59.775Z,40.10
2022-11-14T11:12:29.646Z,40.00
2022-11-14T11:15:31.916Z,40.00
2022-11-14T11:18:22.296Z,39.90
2022-11-14T11:21:13.000Z,39.80
2022-11-14T11:23:55.277Z,39.80
2022-11-14T11:26:31.474Z,39.80
2022-11-14T11:29:20.801Z,39.70
2022-11-14T11:31:49.757Z,39.80
2022-11-14T11:34:30.353Z,39.70
2022-11-14T11:37:21.535Z,39.90
2022-11-14T11:39:54.776Z,39.80
2022-11-14T11:45:49.557Z,39.80
2022-11-14T11:48:20.425Z,39.80
2022-11-14T11:50:49.331Z,39.70
2022-11-14T11:53:38.462Z,39.70
2022-11-14T11:56:21.144Z,39.60
2022-11-14T11:58:52.641Z,39.60
2022-11-14T12:01:22.583Z,39.60
2022-11-14T12:03:52.970Z,39.50
2022-11-14T12:06:27.895Z,39.50
2022-11-14T12:09:14.776Z,39.60
2022-11-14T12:11:47.419Z,39.60
2022-11-14T12:14:24.338Z,39.50
2022-11-14T12:17:27.485Z,39.50
2022-11-14T12:20:27.260Z,39.50
2022-11-14T12:23:12.590Z,39.50
2022-11-14T12:26:18.541Z,39.40
2022-11-14T12:28:54.586Z,39.40
2022-11-14T12:31:24.726Z,39.50
2022-11-14T12:34:02.488Z,39.70
2022-11-14T12:36:33.104Z,39.60
2022-11-14T12:39:03.384Z,39.80
2022-11-14T12:41:40.845Z,39.80
2022-11-14T12:44:29.536Z,39.90
2022-11-14T12:47:07.440Z,40.00
2022-11-14T12:49:52.740Z,40.10
2022-11-14T12:52:45.049Z,40.10
2022-11-14T12:55:25.241Z,40.10
2022-11-14T12:58:12.136Z,40.10
2022-11-14T13:01:06.676Z,40.00
2022-11-14T13:03:49.008Z,40.00
2022-11-14T13:06:39.019Z,40.00
2022-11-14T13:09:30.778Z,40.10
2022-11-14T13:12:19.716Z,40.00
2022-11-14T13:15:11.363Z,40.10
2022-11-14T13:17:57.746Z,39.90
2022-11-14T13:20:44.742Z,39.80
2022-11-14T13:23:27.463Z,39.70
2022-11-14T13:26:10.590Z,39.60
2022-11-14T13:28:38.482Z,39.60
2022-11-14T13:31:43.865Z,39.70
2022-11-14T13:34:49.340Z,39.60
2022-11-14T13:37:40.682Z,39.60
2022-11-14T13:40:33.366Z,39.80
2022-11-14T13:43:29.822Z,40.50
2022-11-14T13:46:29.939Z,39.80
2022-11-14T13:49:13.622Z,39.60
2022-11-14T13:51:43.955Z,40.30
2022-11-14T13:54:18.423Z,39.50
2022-11-14T13:56:56.116Z,39.50
2022-11-14T13:59:47.376Z,39.60
2022-11-14T14:02:44.533Z,39.60
2022-11-14T14:05:18.103Z,39.70
2022-11-14T14:08:04.377Z,39.80
2022-11-14T14:11:00.347Z,39.70
2022-11-14T14:14:02.422Z,39.60
2022-11-14T14:16:49.529Z,39.50
2022-11-14T14:19:35.844Z,39.60
2022-11-14T14:22:07.343Z,39.50
2022-11-14T14:25:07.196Z,39.40
2022-11-14T14:28:13.660Z,39.40
2022-11-14T14:31:00.356Z,39.50
2022-11-14T14:33:28.347Z,39.50
2022-11-14T14:35:57.298Z,39.50
2022-11-14T14:38:30.371Z,39.50
2022-11-14T14:40:59.814Z,39.50
2022-11-14T14:43:34.220Z,39.50
2022-11-14T14:46:04.324Z,39.50
2022-11-14T14:48:38.960Z,39.50
2022-11-14T14:51:10.292Z,39.40
2022-11-14T14:53:39.756Z,39.40
2022-11-14T14:56:21.426Z,39.40
2022-11-14T14:58:52.675Z,39.40
2022-11-14T15:01:32.760Z,39.30
2022-11-14T15:04:16.019Z,39.30
2022-11-14T15:06:57.722Z,39.20
2022-11-14T15:09:32.399Z,39.20
2022-11-14T15:12:02.259Z,39.20
2022-11-14T15:14:34.160Z,39.10
2022-11-14T15:17:03.952Z,39.20
2022-11-14T15:19:50.326Z,39.10
2022-11-14T15:22:29.361Z,39.10
2022-11-14T15:25:16.402Z,39.10
2022-11-14T15:27:54.821Z,39.00
2022-11-14T15:30:45.500Z,39.00
2022-11-14T15:33:35.638Z,39.00
2022-11-14T15:36:23.891Z,39.00
2022-11-14T15:39:32.219Z,38.90
2022-11-14T15:42:28.646Z,38.80
2022-11-14T15:45:03.607Z,38.70
2022-11-14T15:47:47.073Z,38.60
2022-11-14T15:50:17.261Z,38.60
2022-11-14T15:53:00.408Z,38.60
2022-11-14T15:55:33.863Z,38.50
2022-11-14T16:00:56.996Z,38.40
2022-11-14T16:03:30.256Z,38.40
2022-11-14T16:06:04.743Z,38.30
2022-11-14T16:08:34.922Z,38.30
2022-11-14T16:11:06.445Z,38.30
2022-11-14T16:13:38.636Z,38.20
2022-11-14T16:16:11.462Z,38.10
2022-11-14T16:18:42.939Z,38.20
2022-11-14T16:21:15.546Z,38.10
2022-11-14T16:23:46.646Z,38.10
2022-11-14T16:26:17.078Z,38.10
2022-11-14T16:28:49.228Z,38.10
2022-11-14T16:31:22.871Z,38.00
2022-11-14T16:33:52.047Z,38.00
2022-11-14T16:36:25.934Z,38.10
2022-11-14T16:39:01.883Z,38.10
2022-11-14T16:41:33.312Z,38.00
2022-11-14T16:44:02.304Z,38.60
2022-11-14T16:46:30.823Z,37.90
2022-11-14T16:49:01.646Z,37.90
2022-11-14T16:51:48.929Z,37.90
2022-11-14T16:54:26.770Z,37.90
2022-11-14T16:56:57.652Z,37.90
2022-11-14T16:59:28.390Z,37.90
2022-11-14T17:02:13.695Z,37.90
2022-11-14T17:04:47.743Z,37.90
2022-11-14T17:07:16.751Z,37.90
2022-11-14T17:09:53.250Z,37.90
2022-11-14T17:12:23.009Z,37.90
2022-11-14T17:14:54.536Z,37.90
2022-11-14T17:17:27.095Z,37.80
2022-11-14T17:19:56.320Z,37.90
2022-11-14T17:22:28.696Z,37.90
2022-11-14T17:24:54.840Z,37.80
2022-11-14T17:27:27.145Z,37.80
2022-11-14T17:29:57.057Z,37.80
2022-11-14T17:32:34.916Z,37.80
2022-11-14T17:35:06.582Z,37.70
2022-11-14T17:37:37.221Z,37.70
2022-11-14T17:40:15.578Z,37.70
2022-11-14T17:42:47.146Z,37.70
2022-11-14T17:45:19.861Z,37.70
2022-11-14T17:47:50.096Z,37.70
2022-11-14T17:50:24.653Z,37.70
2022-11-14T17:52:54.154Z,37.70
2022-11-14T17:55:26.477Z,37.70
2022-11-14T17:58:07.228Z,37.70
2022-11-14T18:00:37.494Z,37.70
2022-11-14T18:03:06.941Z,37.70
2022-11-14T18:05:43.896Z,37.70
2022-11-14T18:08:13.468Z,37.60
2022-11-14T18:10:53.081Z,37.70
2022-11-14T18:13:26.030Z,37.70
2022-11-14T18:16:02.939Z,37.70
2022-11-14T18:18:44.483Z,37.70
2022-11-14T18:21:17.527Z,37.70
2022-11-14T18:23:51.789Z,37.70
2022-11-14T18:26:31.835Z,37.70
2022-11-14T18:29:07.947Z,37.80
2022-11-14T18:31:44.394Z,37.80
2022-11-14T18:34:16.336Z,37.70
2022-11-14T18:36:47.483Z,37.70
2022-11-14T18:39:16.562Z,37.80
2022-11-14T18:41:47.518Z,37.80
2022-11-14T18:44:33.961Z,37.80
2022-11-14T18:47:05.779Z,37.80
2022-11-14T18:49:40.725Z,37.80
2022-11-14T18:52:17.432Z,37.80
2022-11-14T18:54:48.309Z,37.80
2022-11-14T18:57:19.357Z,37.80
2022-11-14T18:59:50.600Z,37.80
2022-11-14T19:02:21.426Z,37.80
2022-11-14T19:04:59.045Z,37.80
2022-11-14T19:07:29.199Z,37.80
2022-11-14T19:10:02.978Z,37.80
2022-11-14T19:12:37.383Z,37.80
2022-11-14T19:15:08.263Z,37.80
2022-11-14T19:17:39.190Z,37.80
2022-11-14T19:20:14.291Z,37.80
2022-11-14T19:22:50.573Z,37.80
2022-11-14T19:25:22.598Z,37.80
2022-11-14T19:27:55.607Z,37.90
2022-11-14T19:30:22.516Z,37.80
2022-11-14T19:32:53.345Z,37.80
2022-11-14T19:35:24.188Z,37.80
2022-11-14T19:37:50.639Z,37.80
2022-11-14T19:40:17.929Z,37.80
2022-11-14T19:42:49.151Z,37.80
2022-11-14T19:45:18.735Z,37.80
2022-11-14T19:47:49.649Z,37.80
2022-11-14T19:50:20.798Z,37.90
2022-11-14T19:52:49.810Z,37.80
2022-11-14T19:55:18.394Z,37.80
2022-11-14T19:57:51.622Z,37.80
2022-11-14T20:00:27.915Z,37.80
2022-11-14T20:02:57.724Z,37.80
2022-11-14T20:05:27.242Z,37.80
2022-11-14T20:07:58.913Z,37.80
2022-11-14T20:10:35.660Z,37.90
2022-11-14T20:13:05.756Z,37.90
2022-11-14T20:15:35.325Z,37.80
2022-11-14T20:18:07.776Z,37.90
2022-11-14T20:20:40.742Z,37.90
2022-11-14T20:23:11.478Z,37.90
2022-11-14T20:25:43.293Z,37.90
2022-11-14T20:28:14.930Z,37.90
2022-11-14T20:30:49.929Z,37.90
2022-11-14T20:36:07.268Z,37.90
2022-11-14T20:38:36.578Z,37.90
2022-11-14T20:41:07.825Z,37.90
2022-11-14T20:43:39.383Z,37.90
2022-11-14T20:46:18.388Z,37.90
2022-11-14T20:48:53.438Z,37.90
2022-11-14T20:51:30.436Z,37.90
2022-11-14T20:54:03.417Z,37.90
2022-11-14T20:56:36.387Z,37.90
2022-11-14T20:59:06.974Z,37.90
2022-11-14T21:01:42.160Z,37.90
2022-11-14T21:04:15.510Z,37.90
2022-11-14T21:06:45.726Z,37.90
2022-11-14T21:09:16.270Z,37.90
2022-11-14T21:11:49.010Z,37.90
2022-11-14T21:14:20.696Z,37.90
2022-11-14T21:16:51.973Z,37.90
2022-11-14T21:19:23.342Z,37.90
2022-11-14T21:21:54.624Z,38.00
2022-11-14T21:24:25.377Z,37.90
2022-11-14T21:26:57.964Z,37.90
2022-11-14T21:29:30.099Z,37.90
2022-11-14T21:32:06.255Z,37.90
2022-11-14T21:34:37.102Z,37.90
2022-11-14T21:37:07.064Z,37.90
2022-11-14T21:39:37.512Z,37.90
2022-11-14T21:42:17.144Z,37.90
2022-11-14T21:44:49.147Z,38.00
2022-11-14T21:47:19.287Z,38.00
2022-11-14T21:49:50.631Z,38.00
2022-11-14T21:52:22.361Z,38.10
2022-11-14T21:54:50.176Z,38.00
2022-11-14T21:57:17.821Z,38.00
2022-11-14T21:59:47.901Z,38.00
2022-11-14T22:02:42.306Z,38.00
2022-11-14T22:05:13.813Z,38.00
2022-11-14T22:07:45.456Z,38.00
2022-11-14T22:10:17.269Z,38.00
2022-11-14T22:12:47.274Z,38.00
2022-11-14T22:15:17.118Z,38.10
2022-11-14T22:17:44.956Z,38.00
2022-11-14T22:20:14.236Z,38.00
2022-11-14T22:22:46.800Z,38.10
2022-11-14T22:25:18.690Z,38.00
2022-11-14T22:27:49.756Z,38.00
2022-11-14T22:30:21.784Z,38.00
2022-11-14T22:32:53.994Z,38.00
2022-11-14T22:35:28.701Z,38.10
2022-11-14T22:37:56.616Z,38.00
2022-11-14T22:40:24.866Z,38.00
2022-11-14T22:42:52.870Z,38.00
2022-11-14T22:45:23.522Z,38.00
2022-11-14T22:47:55.934Z,38.10
2022-11-14T22:50:32.107Z,38.00
2022-11-14T22:53:05.037Z,38.00
2022-11-14T22:55:37.046Z,38.00
2022-11-14T22:58:09.099Z,38.00
2022-11-14T23:00:43.398Z,38.00
2022-11-14T23:03:17.588Z,38.00
2022-11-14T23:05:52.532Z,38.10
2022-11-14T23:08:23.214Z,38.00
2022-11-14T23:10:54.325Z,38.00
2022-11-14T23:13:25.587Z,38.10
2022-11-14T23:15:54.532Z,38.10
2022-11-14T23:18:28.261Z,38.10
2022-11-14T23:20:57.078Z,38.00
2022-11-14T23:23:24.841Z,38.00
2022-11-14T23:25:55.803Z,38.00
2022-11-14T23:28:26.926Z,38.00
2022-11-14T23:30:59.611Z,38.10
2022-11-14T23:33:30.802Z,38.10
2022-11-14T23:36:00.866Z,38.00
2022-11-14T23:38:30.953Z,38.00
2022-11-14T23:41:05.176Z,38.10
2022-11-14T23:43:35.730Z,38.00
2022-11-14T23:46:08.135Z,38.00
2022-11-14T23:48:35.878Z,38.10
2022-11-14T23:51:05.154Z,38.00
2022-11-14T23:53:35.225Z,38.00
2022-11-14T23:56:06.232Z,38.00
2022-11-14T23:58:36.278Z,38.10
